Schenectady, NY

8:33 PM EST on January 26, 2015 (GMT -0500)
Daily Gazette | Change Station
CLOSE
Current Station
Personal Weather Station
Location: Schenectady, NY
Elevation: 295 ft
Nearby Weather Stations
Active Advisory: Winter Storm Warning

Elev 295 ft 42.83 °N, 73.92 °W | Updated 2 seconds ago

Light Snow
Light Snow
15.1 °F
Feels Like 6 °F
N
6.0
Wind Variable Wind from NNW
Gusts 13.0 mph

Today
High -- | Low -- °F
--% Chance of Precip.
Yesterday
High -- | Low -- °F
Precip. -- in
7:16 AM 5:00 PM
Waxing Crescent, 48% visible
Pressure 30.02 in
Visibility 7.0 miles
Clouds Overcast 4900 ft
Windchill 6 °F
Dew Point 12 °F
Humidity 85%
Rainfall 0.00 in
Snow Depth Not available.
UV 0 out of 12
Pollen .10 out of 12
Air Quality Not available.
Flu Activity Not available.
METAR KSCH 262352Z 05009G15KT 7SM -SN OVC049 M08/M13 A3002

More Conditions Fewer Conditions

Pressure 30.02 in
Visibility 7.0 miles
Clouds Overcast 4900 ft
Windchill 6 °F
Dew Point 12 °F
Humidity 85%
Rainfall 0.00 in
Snow Depth Not available.
UV 0 out of 12
Pollen .10 out of 12
Air Quality Not available.
Flu Activity Not available.
METAR KSCH 262352Z 05009G15KT 7SM -SN OVC049 M08/M13 A3002

More Conditions Fewer Conditions

10-Day Weather Forecast

Almanac

Astronomy

Jan. 26, 2015 Rise Set
Actual Time
Civil Twilight
Nautical Twilight
Astronomical Twilight
Moon
Length of Visible Light
Length of Day
Tomorrow will be .
, % of the Moon is Illuminated

Today's Extremes

State Highs State Lows

Community

WunderPhotos

Upload Photos

1,790,446 photos uploaded!

WunderBlogs® & News

Nearby

Air Quality

  Air Quality AQ Index Pollutant
Not available.

Snow Depth

Station Depth Elevation

Earthquake Activity

City Distance Mag. Time & Date
Minimum magnitude displayed is 2.5.

Coastal Water Temperatures

Place Temperature

Nearby Weather Stations